Time;durP1;ratioP1;P1;durP2;ratioP2;P2;SDS_P1;SDS_P2;PMS_P1;PMS_P2;Temp;Humidity;BMP_temperature;BMP_pressure;BME280_temperature;BME280_humidity;BME280_pressure;Samples;Min_cycle;Max_cycle;Signal;HPM_P1;HPM_P2
2022/01/16 00:04:39;;;;;;;6.67;1.75;;;;;;;0.65;66.20;99582.93;1744102;80;21074;-67
2022/01/16 00:07:05;;;;;;;5.00;1.82;;;;;;;0.67;66.21;99588.10;1745627;80;21482;-64
2022/01/16 00:09:32;;;;;;;5.12;1.52;;;;;;;0.68;66.16;99589.20;1739631;81;21152;-65
2022/01/16 00:12:01;;;;;;;7.92;2.47;;;;;;;0.68;65.73;99590.56;1738838;80;21174;-66
2022/01/16 00:14:30;;;;;;;3.17;1.20;;;;;;;0.66;65.52;99588.66;1744597;81;21030;-66
2022/01/16 00:16:57;;;;;;;3.77;1.37;;;;;;;0.65;65.29;99599.77;1739009;79;21066;-67
2022/01/16 00:19:23;;;;;;;3.22;1.27;;;;;;;0.64;64.71;99597.58;1735111;81;21004;-67
2022/01/16 00:21:51;;;;;;;3.42;1.37;;;;;;;0.63;64.57;99591.88;1757495;80;21132;-66
2022/01/16 00:24:19;;;;;;;5.35;1.40;;;;;;;0.64;64.59;99602.17;1741041;79;21031;-66
2022/01/16 00:26:47;;;;;;;6.90;1.40;;;;;;;0.65;64.83;99599.20;1743749;80;21093;-67
2022/01/16 00:29:16;;;;;;;5.12;1.70;;;;;;;0.65;64.52;99603.27;1757131;79;21486;-62
2022/01/16 00:31:42;;;;;;;3.80;1.32;;;;;;;0.65;64.65;99611.97;1752731;80;21030;-66
2022/01/16 00:34:10;;;;;;;2.30;1.32;;;;;;;0.63;64.12;99604.61;1746124;80;21585;-66
2022/01/16 00:36:37;;;;;;;3.85;1.75;;;;;;;0.63;63.81;99601.38;1760534;80;21064;-65
2022/01/16 00:39:04;;;;;;;4.50;1.15;;;;;;;0.60;63.47;99585.05;1754673;80;21563;-68
2022/01/16 00:41:32;;;;;;;5.72;1.17;;;;;;;0.61;63.81;99576.39;1753272;79;21033;-64
2022/01/16 00:43:58;;;;;;;2.40;1.05;;;;;;;0.62;63.93;99578.55;1748370;80;21009;-67
2022/01/16 00:46:25;;;;;;;2.70;1.10;;;;;;;0.62;63.91;99591.58;1737830;81;21171;-67
2022/01/16 00:48:51;;;;;;;2.87;1.12;;;;;;;0.63;63.71;99602.73;1761915;80;21517;-68
2022/01/16 00:51:17;;;;;;;2.72;1.02;;;;;;;0.62;63.71;99600.24;1757279;80;20998;-66
2022/01/16 00:53:45;;;;;;;4.37;1.42;;;;;;;0.63;63.50;99597.83;1744648;80;21069;-65
2022/01/16 00:56:12;;;;;;;1.90;0.95;;;;;;;0.63;63.31;99600.55;1750298;79;21484;-66
2022/01/16 00:58:40;;;;;;;2.08;1.22;;;;;;;0.63;63.29;99603.26;1746451;80;21133;-68
2022/01/16 01:01:08;;;;;;;4.03;1.30;;;;;;;0.59;62.79;99589.37;1743147;80;21115;-68
2022/01/16 01:03:34;;;;;;;3.22;1.40;;;;;;;0.59;63.01;99571.74;1730376;80;22263;-65
2022/01/16 01:06:04;;;;;;;3.65;1.07;;;;;;;0.57;63.13;99566.58;1744087;80;21050;-67
2022/01/16 01:08:32;;;;;;;4.47;1.40;;;;;;;0.56;62.70;99587.97;1743204;80;20990;-64
2022/01/16 01:11:06;;;;;;;3.80;1.27;;;;;;;0.55;62.77;99609.92;1751562;80;21094;-67
2022/01/16 01:13:34;;;;;;;3.52;1.37;;;;;;;0.54;62.28;99594.73;1748939;80;21560;-64
2022/01/16 01:16:04;;;;;;;6.50;1.45;;;;;;;0.53;62.40;99595.81;1742502;80;21078;-67
2022/01/16 01:18:33;;;;;;;6.75;1.30;;;;;;;0.52;62.38;99622.10;1748701;80;21471;-67
2022/01/16 01:21:02;;;;;;;1.62;0.80;;;;;;;0.52;62.51;99601.77;1753693;79;21043;-63
2022/01/16 01:23:31;;;;;;;6.78;1.22;;;;;;;0.53;61.96;99600.68;1742385;81;21068;-66
2022/01/16 01:25:57;;;;;;;4.60;1.00;;;;;;;0.53;62.03;99626.44;1721187;81;21006;-67
2022/01/16 01:28:26;;;;;;;2.27;0.90;;;;;;;0.52;62.56;99632.95;1742449;80;21040;-65
2022/01/16 01:30:52;;;;;;;2.83;1.20;;;;;;;0.53;62.61;99630.52;1742023;79;21074;-65
2022/01/16 01:33:20;;;;;;;2.17;1.17;;;;;;;0.55;62.79;99651.95;1732791;79;21546;-65
2022/01/16 01:35:47;;;;;;;2.05;1.00;;;;;;;0.55;62.95;99637.87;1762938;80;21388;-66
2022/01/16 01:38:17;;;;;;;3.27;1.30;;;;;;;0.54;62.89;99657.10;1749708;79;21113;-67
2022/01/16 01:40:43;;;;;;;3.87;1.45;;;;;;;0.52;62.61;99676.34;1737168;80;21074;-65
2022/01/16 01:51:22;;;;;;;3.50;1.50;;;;;;;0.51;62.98;99522.02;1727536;80;21050;-67
2022/01/16 01:53:51;;;;;;;3.85;1.22;;;;;;;0.46;63.02;99489.69;1742373;81;21604;-66
2022/01/16 01:56:18;;;;;;;5.10;1.40;;;;;;;0.48;63.24;99514.66;1732854;80;21014;-66
2022/01/16 01:58:46;;;;;;;3.17;1.10;;;;;;;0.52;63.38;99528.55;1742396;81;21470;-66
2022/01/16 02:01:12;;;;;;;4.40;1.12;;;;;;;0.50;63.22;99563.75;1737875;81;21131;-67
2022/01/16 02:06:11;;;;;;;5.25;1.17;;;;;;;0.51;63.65;99583.03;1747635;80;21087;-67
2022/01/16 02:08:38;;;;;;;3.08;1.35;;;;;;;0.53;63.66;99585.77;1735862;80;22141;-66
2022/01/16 02:11:04;;;;;;;3.45;1.10;;;;;;;0.54;63.82;99592.84;1741321;81;21025;-67
2022/01/16 02:13:46;;;;;;;4.97;1.40;;;;;;;0.57;64.00;99616.75;1737480;79;21165;-66
2022/01/16 02:32:40;;;;;;;4.05;1.82;;;;;;;0.53;64.76;99598.52;1734226;79;21150;-64
2022/01/16 02:34:47;;;;;;;3.60;1.35;;;;;;;0.54;64.95;99614.55;1724966;80;20978;-66
2022/01/16 02:37:16;;;;;;;4.33;1.52;;;;;;;0.53;64.91;99611.53;1750466;80;21006;-66
2022/01/16 02:39:51;;;;;;;4.80;1.37;;;;;;;0.53;64.79;99621.58;1741443;80;21102;-67
2022/01/16 02:42:24;;;;;;;4.08;1.20;;;;;;;0.48;64.77;99624.48;1749150;80;21477;-67
2022/01/16 02:44:49;;;;;;;5.25;1.27;;;;;;;0.42;64.40;99649.07;1747992;81;21601;-68
2022/01/16 02:47:18;;;;;;;5.92;1.32;;;;;;;0.38;63.94;99647.91;1764034;79;21031;-66
2022/01/16 02:49:49;;;;;;;5.87;1.75;;;;;;;0.35;64.25;99656.86;1735117;81;21062;-67
2022/01/16 02:52:18;;;;;;;5.28;1.50;;;;;;;0.36;63.89;99659.02;1739715;80;21130;-67
2022/01/16 02:54:46;;;;;;;6.47;1.32;;;;;;;0.33;64.08;99650.02;1742494;80;21038;-68
2022/01/16 02:57:16;;;;;;;3.98;1.50;;;;;;;0.34;64.27;99651.13;1744122;80;21154;-65
2022/01/16 02:59:50;;;;;;;4.22;1.50;;;;;;;0.34;64.15;99651.13;1712200;82;21016;-66
2022/01/16 03:02:17;;;;;;;4.33;1.55;;;;;;;0.34;63.99;99649.77;1715813;81;21138;-65
2022/01/16 03:04:43;;;;;;;5.15;1.52;;;;;;;0.35;64.30;99649.25;1706101;82;22178;-66
2022/01/16 03:07:09;;;;;;;2.95;1.10;;;;;;;0.34;64.49;99653.84;1737608;81;20975;-67
2022/01/16 03:12:22;;;;;;;3.58;1.70;;;;;;;0.36;65.00;99656.30;1708704;81;21536;-66
2022/01/16 03:14:49;;;;;;;4.55;2.05;;;;;;;0.39;65.30;99666.67;1707859;81;21223;-66
2022/01/16 03:17:38;;;;;;;4.12;1.82;;;;;;;0.40;65.39;99658.81;1694160;82;21258;-66
2022/01/16 03:22:38;;;;;;;4.00;1.70;;;;;;;0.42;66.06;99657.20;1702594;82;21204;-67
2022/01/16 03:25:07;;;;;;;9.58;1.72;;;;;;;0.44;66.31;99669.46;1695603;82;21049;-67
2022/01/16 03:27:36;;;;;;;4.85;1.70;;;;;;;0.43;66.63;99664.26;1701507;81;21012;-67
2022/01/16 03:30:03;;;;;;;5.67;1.30;;;;;;;0.42;66.85;99669.41;1704315;81;21810;-67
2022/01/16 03:32:30;;;;;;;11.88;1.80;;;;;;;0.39;67.11;99673.45;1708721;81;21078;-66
2022/01/16 03:34:56;;;;;;;4.50;1.55;;;;;;;0.40;67.37;99676.44;1706919;82;21070;-66
2022/01/16 03:37:23;;;;;;;4.33;1.40;;;;;;;0.40;67.39;99673.73;1712189;81;21133;-66
2022/01/16 03:39:50;;;;;;;4.78;1.98;;;;;;;0.39;67.53;99671.27;1712449;81;21573;-64
2022/01/16 03:42:24;;;;;;;5.10;1.92;;;;;;;0.38;67.80;99683.16;1713158;81;21581;-66
2022/01/16 03:44:45;;;;;;;6.30;1.98;;;;;;;0.38;67.71;99690.77;1723134;80;21620;-67
2022/01/16 03:47:13;;;;;;;3.75;1.55;;;;;;;0.39;67.65;99688.89;1704671;81;21037;-64
2022/01/16 03:49:39;;;;;;;3.77;1.70;;;;;;;0.41;67.50;99692.98;1706866;81;21167;-66
2022/01/16 03:52:06;;;;;;;3.27;1.52;;;;;;;0.40;67.28;99687.28;1718372;82;21080;-65
2022/01/16 03:54:34;;;;;;;2.67;1.35;;;;;;;0.35;67.54;99686.68;1716133;82;21543;-67
2022/01/16 03:57:03;;;;;;;4.45;2.00;;;;;;;0.31;67.50;99688.75;1731429;81;21509;-67
2022/01/16 03:59:29;;;;;;;6.35;2.00;;;;;;;0.31;67.79;99695.53;1745794;79;21517;-66
2022/01/16 04:01:55;;;;;;;4.47;2.05;;;;;;;0.32;67.86;99696.67;1735106;80;21408;-67
2022/01/16 04:04:21;;;;;;;7.87;2.10;;;;;;;0.30;67.83;99695.26;1753065;80;21490;-67
2022/01/16 04:06:49;;;;;;;8.08;2.65;;;;;;;0.30;68.06;99687.13;1732412;80;21035;-66
2022/01/16 04:09:15;;;;;;;7.85;1.90;;;;;;;0.32;68.13;99689.06;1738954;80;21688;-66
2022/01/16 04:11:52;;;;;;;7.80;2.50;;;;;;;0.32;67.96;99684.47;1751218;79;21047;-66
2022/01/16 04:14:16;;;;;;;6.20;1.95;;;;;;;0.36;68.08;99686.95;1743406;81;21085;-67
2022/01/16 04:16:38;;;;;;;5.00;1.47;;;;;;;0.34;67.82;99682.30;1753813;79;21161;-67
2022/01/16 04:19:05;;;;;;;6.42;1.80;;;;;;;0.31;66.97;99683.33;1739373;81;21483;-67
2022/01/16 04:21:33;;;;;;;5.35;1.67;;;;;;;0.29;66.89;99687.65;1740413;80;21042;-64
2022/01/16 04:24:03;;;;;;;5.25;1.70;;;;;;;0.27;66.94;99678.14;1735934;80;21052;-65
2022/01/16 04:26:29;;;;;;;5.62;1.77;;;;;;;0.26;67.18;99684.64;1750624;79;21105;-68
2022/01/16 04:28:58;;;;;;;4.87;1.50;;;;;;;0.27;67.23;99689.81;1744648;80;21012;-67
2022/01/16 04:31:24;;;;;;;5.08;1.60;;;;;;;0.27;67.34;99698.47;1743578;80;21573;-68
2022/01/16 04:33:51;;;;;;;6.40;2.20;;;;;;;0.23;67.28;99692.72;1735515;79;21060;-67
2022/01/16 04:36:17;;;;;;;7.70;1.72;;;;;;;0.23;67.36;99690.83;1738381;80;21151;-67
2022/01/16 04:38:48;;;;;;;7.45;2.45;;;;;;;0.23;67.16;99692.19;1747280;80;21148;-66
2022/01/16 04:44:00;;;;;;;7.47;2.30;;;;;;;0.21;67.08;99701.09;1747489;80;21102;-68
2022/01/16 04:46:28;;;;;;;10.93;2.72;;;;;;;0.21;67.21;99697.55;1745611;79;21137;-67
2022/01/16 04:48:56;;;;;;;8.43;2.40;;;;;;;0.22;67.25;99700.56;1756731;78;21567;-67
2022/01/16 04:51:23;;;;;;;9.03;2.90;;;;;;;0.27;67.20;99697.94;1747936;80;21480;-68
2022/01/16 04:53:49;;;;;;;9.75;3.58;;;;;;;0.28;67.01;99710.42;1761909;80;21042;-66
2022/01/16 04:56:16;;;;;;;11.65;3.58;;;;;;;0.25;66.97;99704.14;1730091;81;21075;-66
2022/01/16 04:58:43;;;;;;;10.23;2.98;;;;;;;0.23;66.90;99708.98;1749394;79;21478;-65
2022/01/16 05:01:11;;;;;;;7.40;2.25;;;;;;;0.23;66.65;99717.94;1742725;80;21021;-61
2022/01/16 05:03:39;;;;;;;12.53;3.60;;;;;;;0.22;66.74;99720.90;1728780;80;21065;-65
2022/01/16 05:06:06;;;;;;;9.63;2.40;;;;;;;0.22;66.54;99715.48;1731322;79;21496;-65
2022/01/16 05:08:35;;;;;;;9.53;2.45;;;;;;;0.22;66.69;99718.19;1730684;80;21155;-68
2022/01/16 05:11:04;;;;;;;3.80;1.35;;;;;;;0.21;66.56;99726.84;1748788;80;21152;-64
2022/01/16 05:18:47;;;;;;;3.75;1.62;;;;;;;0.26;66.32;99726.66;1732773;79;21496;-66
2022/01/16 05:21:15;;;;;;;10.40;2.45;;;;;;;0.26;65.96;99733.44;1758433;80;21259;-65
2022/01/16 05:23:43;;;;;;;9.88;2.30;;;;;;;0.26;65.73;99735.59;1730243;80;21072;-65
2022/01/16 05:26:11;;;;;;;7.10;1.75;;;;;;;0.26;65.32;99735.59;1758189;80;21068;-64
2022/01/16 05:28:37;;;;;;;10.82;2.70;;;;;;;0.22;65.35;99739.32;1750209;79;21078;-67
2022/01/16 05:31:04;;;;;;;6.42;2.22;;;;;;;0.20;65.22;99731.98;1734167;81;21062;-66
2022/01/16 05:33:31;;;;;;;6.37;1.67;;;;;;;0.16;64.85;99736.24;1754200;79;21088;-65
2022/01/16 05:35:58;;;;;;;5.97;1.72;;;;;;;0.13;64.15;99741.33;1725399;80;21281;-64
2022/01/16 05:38:24;;;;;;;6.05;1.70;;;;;;;0.11;64.07;99739.70;1745371;80;20978;-66
2022/01/16 05:40:50;;;;;;;4.12;1.65;;;;;;;0.13;64.04;99732.67;1744559;79;21005;-67
2022/01/16 05:43:17;;;;;;;4.83;1.60;;;;;;;0.13;63.80;99743.52;1745658;80;21708;-65
2022/01/16 05:45:44;;;;;;;7.08;2.20;;;;;;;0.11;63.27;99747.83;1741202;80;21109;-64
2022/01/16 05:48:12;;;;;;;5.80;2.00;;;;;;;0.10;62.99;99750.78;1748026;79;21596;-64
2022/01/16 05:50:39;;;;;;;9.13;1.75;;;;;;;0.08;62.90;99748.84;1692440;80;21082;-64
2022/01/16 05:53:05;;;;;;;4.75;1.75;;;;;;;0.07;62.81;99740.44;1693235;83;21105;-63
2022/01/16 05:55:36;;;;;;;7.55;1.70;;;;;;;0.05;62.30;99739.30;1703357;81;21612;-65
2022/01/16 05:58:04;;;;;;;8.53;2.25;;;;;;;0.05;62.68;99740.66;1704788;80;21182;-63
2022/01/16 06:00:31;;;;;;;7.12;2.25;;;;;;;0.10;62.98;99752.14;1723436;80;21225;-64
2022/01/16 06:02:57;;;;;;;10.72;2.90;;;;;;;0.09;62.88;99753.19;1717806;81;21494;-66
2022/01/16 06:05:23;;;;;;;8.20;2.50;;;;;;;0.10;63.07;99752.14;1699297;81;21048;-66
2022/01/16 06:07:57;;;;;;;7.95;2.10;;;;;;;0.10;63.31;99754.85;1723164;81;21024;-68
2022/01/16 06:10:24;;;;;;;12.13;2.80;;;;;;;0.13;63.57;99752.17;1708718;81;21519;-66
2022/01/16 06:12:52;;;;;;;7.08;3.50;;;;;;;0.15;63.49;99745.45;1701695;82;21104;-68
2022/01/16 06:15:21;;;;;;;6.92;2.50;;;;;;;0.15;63.58;99760.88;1686383;82;21506;-68
2022/01/16 06:17:47;;;;;;;10.30;3.25;;;;;;;0.14;63.57;99757.34;1706275;82;21533;-66
2022/01/16 06:20:15;;;;;;;8.83;2.85;;;;;;;0.15;63.68;99765.78;1744649;80;21098;-66
2022/01/16 06:22:43;;;;;;;8.58;3.70;;;;;;;0.17;63.84;99769.60;1750977;81;21021;-67
2022/01/16 06:25:12;;;;;;;6.30;2.95;;;;;;;0.17;63.76;99771.76;1722615;82;21215;-66
2022/01/16 06:27:40;;;;;;;9.50;3.25;;;;;;;0.15;63.67;99769.84;1699078;82;21092;-68
2022/01/16 06:30:09;;;;;;;7.15;2.55;;;;;;;0.16;63.72;99776.91;1705475;81;21632;-66
2022/01/16 06:32:38;;;;;;;7.60;2.55;;;;;;;0.17;63.59;99776.38;1717683;81;21552;-66
2022/01/16 06:35:06;;;;;;;7.42;2.50;;;;;;;0.16;63.41;99785.03;1710895;81;21212;-65
2022/01/16 06:37:35;;;;;;;12.10;3.00;;;;;;;0.16;63.10;99776.07;1710399;81;21006;-67
2022/01/16 06:40:03;;;;;;;7.00;2.67;;;;;;;0.16;63.22;99782.32;1712644;80;20994;-67
2022/01/16 06:42:32;;;;;;;11.25;2.77;;;;;;;0.10;63.20;99775.98;1729672;81;21556;-67
2022/01/16 06:44:59;;;;;;;17.27;3.92;;;;;;;0.07;63.08;99781.89;1699927;81;21109;-67
2022/01/16 06:47:28;;;;;;;6.35;2.80;;;;;;;0.08;63.41;99784.91;1703338;82;21909;-67
2022/01/16 06:49:58;;;;;;;7.42;2.98;;;;;;;0.10;62.81;99780.05;1713222;81;21528;-69
2022/01/16 06:52:24;;;;;;;7.00;2.72;;;;;;;0.08;62.67;99789.50;1707740;82;21018;-67
2022/01/16 06:54:52;;;;;;;3.15;1.22;;;;;;;0.04;61.90;99786.45;1719443;82;21624;-68
2022/01/16 06:57:18;;;;;;;5.20;1.57;;;;;;;0.01;61.72;99787.46;1719281;81;20977;-68
2022/01/16 06:59:45;;;;;;;3.17;1.40;;;;;;;-0.01;61.04;99790.41;1700664;82;21168;-68
2022/01/16 07:02:12;;;;;;;8.95;2.17;;;;;;;-0.05;59.63;99786.56;1704295;82;21652;-66
2022/01/16 07:04:42;;;;;;;8.18;2.45;;;;;;;-0.07;59.28;99799.53;1708919;81;21057;-66
2022/01/16 07:07:09;;;;;;;11.28;2.62;;;;;;;-0.09;59.24;99802.48;1720144;81;21549;-66
2022/01/16 07:09:35;;;;;;;26.85;9.60;;;;;;;-0.09;59.45;99798.41;1702831;82;21073;-67
2022/01/16 07:12:04;;;;;;;30.37;11.68;;;;;;;-0.08;58.87;99810.05;1709680;81;21173;-64
2022/01/16 07:14:31;;;;;;;18.67;6.37;;;;;;;-0.09;58.75;99806.55;1710927;82;21117;-67
2022/01/16 07:16:58;;;;;;;6.37;2.33;;;;;;;-0.11;58.59;99811.37;1709603;81;21001;-66
2022/01/16 07:19:26;;;;;;;4.45;2.00;;;;;;;-0.10;58.94;99811.66;1700186;82;21012;-65
2022/01/16 07:21:53;;;;;;;6.90;2.85;;;;;;;-0.05;59.22;99817.72;1714031;81;21002;-67
2022/01/16 07:24:20;;;;;;;14.40;4.90;;;;;;;-0.05;58.97;99814.46;1711763;81;21083;-66
2022/01/16 07:26:58;;;;;;;5.87;2.45;;;;;;;-0.04;59.38;99810.70;1706153;81;21485;-65
2022/01/16 07:29:25;;;;;;;4.72;1.90;;;;;;;-0.04;59.78;99820.71;1732049;81;21074;-68
2022/01/16 07:31:51;;;;;;;5.85;2.52;;;;;;;-0.03;59.94;99823.17;1744400;80;21021;-68
2022/01/16 07:34:17;;;;;;;7.47;2.98;;;;;;;-0.01;60.23;99822.41;1746151;80;21531;-68
2022/01/16 07:36:46;;;;;;;3.85;2.17;;;;;;;0.05;60.60;99830.09;1734012;79;21191;-67
2022/01/16 07:39:14;;;;;;;7.15;2.70;;;;;;;0.08;60.82;99824.73;1702609;80;21072;-66
2022/01/16 07:41:41;;;;;;;4.20;2.33;;;;;;;0.10;61.27;99832.09;1747381;79;21073;-66
2022/01/16 07:44:10;;;;;;;7.67;2.30;;;;;;;0.10;61.50;99827.47;1740503;81;21008;-65
2022/01/16 07:46:36;;;;;;;13.80;4.62;;;;;;;0.11;61.78;99820.17;1727248;79;21063;-68
2022/01/16 07:49:05;;;;;;;11.18;4.40;;;;;;;0.15;62.27;99822.70;1748260;79;21560;-65
2022/01/16 07:51:33;;;;;;;19.15;4.78;;;;;;;0.21;62.51;99820.89;1736859;80;21141;-69
2022/01/16 07:54:00;;;;;;;14.18;3.67;;;;;;;0.27;62.56;99815.03;1739233;79;21076;-66
2022/01/16 07:56:26;;;;;;;7.80;2.72;;;;;;;0.28;62.40;99821.56;1751587;79;21002;-64
2022/01/16 07:58:54;;;;;;;8.78;3.02;;;;;;;0.26;61.67;99810.69;1735051;81;21092;-66
2022/01/16 08:01:22;;;;;;;9.83;2.85;;;;;;;0.24;61.49;99810.91;1748068;79;21138;-68
2022/01/16 08:03:50;;;;;;;6.92;2.00;;;;;;;0.24;61.68;99817.16;1763015;80;21501;-70
2022/01/16 08:06:18;;;;;;;6.45;2.17;;;;;;;0.21;60.52;99820.36;1722526;81;21022;-69
2022/01/16 08:08:44;;;;;;;5.53;2.70;;;;;;;0.18;61.01;99819.50;1747295;80;21494;-68
2022/01/16 08:11:11;;;;;;;6.20;2.72;;;;;;;0.15;60.81;99825.41;1740693;79;21088;-67
2022/01/16 08:13:38;;;;;;;4.05;1.92;;;;;;;0.15;60.85;99828.64;1730923;81;21647;-66
2022/01/16 08:16:06;;;;;;;5.80;2.33;;;;;;;0.15;61.06;99825.94;1746108;79;21141;-66
2022/01/16 08:18:36;;;;;;;5.50;1.92;;;;;;;0.16;61.15;99833.82;1734417;80;21042;-65
2022/01/16 08:21:02;;;;;;;5.37;1.92;;;;;;;0.15;60.76;99828.64;1731004;80;21486;-65
2022/01/16 08:23:30;;;;;;;7.03;2.75;;;;;;;0.18;61.20;99830.86;1752630;79;21024;-69
2022/01/16 08:25:56;;;;;;;9.05;1.90;;;;;;;0.24;61.43;99834.78;1745033;81;21554;-64
2022/01/16 08:28:23;;;;;;;4.22;1.80;;;;;;;0.24;60.96;99833.42;1726726;81;21005;-67
2022/01/16 08:30:50;;;;;;;6.30;2.00;;;;;;;0.27;60.41;99833.48;1736566;81;21015;-68
2022/01/16 08:33:23;;;;;;;7.53;2.00;;;;;;;0.30;60.21;99837.06;1730549;81;21390;-69
2022/01/16 08:35:51;;;;;;;9.08;3.05;;;;;;;0.29;59.73;99839.46;1701653;81;21076;-65
2022/01/16 08:38:23;;;;;;;10.85;2.92;;;;;;;0.29;59.35;99832.69;1740716;80;21043;-66
2022/01/16 08:40:53;;;;;;;7.65;2.02;;;;;;;0.28;59.23;99842.42;1756269;80;20986;-67
2022/01/16 08:43:24;;;;;;;4.80;2.15;;;;;;;0.27;59.38;99842.97;1736345;79;21042;-66
2022/01/16 08:45:52;;;;;;;6.62;2.08;;;;;;;0.25;59.33;99842.39;1747528;79;21259;-69
2022/01/16 08:48:21;;;;;;;11.73;1.82;;;;;;;0.26;59.44;99844.58;1739728;80;21128;-68
2022/01/16 08:50:47;;;;;;;6.22;2.02;;;;;;;0.27;59.48;99838.08;1750111;80;21122;-67
2022/01/16 08:53:13;;;;;;;8.85;2.30;;;;;;;0.27;59.19;99833.48;1744705;81;21535;-68
2022/01/16 08:55:39;;;;;;;7.03;1.82;;;;;;;0.29;59.75;99831.88;1701914;82;21038;-66
2022/01/16 08:58:06;;;;;;;8.00;2.58;;;;;;;0.32;59.76;99834.11;1710523;82;21029;-65
2022/01/16 09:00:32;;;;;;;5.80;1.90;;;;;;;0.35;59.99;99826.31;1724509;80;21171;-66
2022/01/16 09:03:00;;;;;;;7.03;2.67;;;;;;;0.42;59.92;99819.38;1693041;82;21389;-67
2022/01/16 09:05:28;;;;;;;5.30;2.30;;;;;;;0.43;59.70;99808.80;1716916;81;21065;-68
2022/01/16 09:07:58;;;;;;;8.03;2.08;;;;;;;0.44;59.77;99809.11;1712704;81;21030;-69
2022/01/16 09:10:26;;;;;;;3.33;1.70;;;;;;;0.47;60.32;99810.50;1701901;82;21046;-68
2022/01/16 09:12:55;;;;;;;5.05;2.00;;;;;;;0.52;60.37;99816.53;1713783;82;21081;-66
2022/01/16 09:15:26;;;;;;;7.45;1.72;;;;;;;0.50;60.28;99807.28;1714892;80;21077;-67
2022/01/16 09:17:55;;;;;;;3.80;1.85;;;;;;;0.48;60.63;99809.41;1701330;81;21665;-68
2022/01/16 09:20:22;;;;;;;9.80;2.75;;;;;;;0.53;61.07;99801.92;1695596;81;21485;-65
2022/01/16 09:22:49;;;;;;;6.62;2.00;;;;;;;0.56;61.33;99803.58;1705511;81;21489;-66
2022/01/16 09:25:20;;;;;;;2.85;1.37;;;;;;;0.56;61.22;99791.93;1715463;81;21147;-67
2022/01/16 09:27:52;;;;;;;6.80;2.37;;;;;;;0.53;60.60;99792.43;1713994;81;21536;-67
2022/01/16 09:30:19;;;;;;;7.65;2.35;;;;;;;0.46;61.08;99793.39;1714418;81;21057;-66
2022/01/16 09:32:49;;;;;;;3.98;1.72;;;;;;;0.46;61.08;99793.39;1713143;81;21065;-67
2022/01/16 09:35:15;;;;;;;9.33;2.05;;;;;;;0.39;60.87;99784.62;1709368;81;21133;-65
2022/01/16 09:37:43;;;;;;;6.17;2.10;;;;;;;0.33;61.26;99783.70;1713086;80;21095;-67
2022/01/16 09:40:12;;;;;;;5.53;1.82;;;;;;;0.35;61.43;99782.93;1691302;82;21146;-67
2022/01/16 09:42:38;;;;;;;7.97;2.58;;;;;;;0.31;60.91;99783.12;1742993;81;21038;-67
2022/01/16 09:45:10;;;;;;;3.08;1.50;;;;;;;0.26;61.42;99780.31;1742147;80;21054;-65
2022/01/16 09:47:37;;;;;;;3.15;1.20;;;;;;;0.26;61.23;99776.80;1703261;83;21573;-66
2022/01/16 09:50:05;;;;;;;5.03;1.70;;;;;;;0.28;61.24;99774.65;1725145;80;21135;-65
2022/01/16 09:52:38;;;;;;;5.08;1.92;;;;;;;0.28;61.34;99765.16;1700465;82;21201;-66
2022/01/16 09:55:05;;;;;;;6.40;2.80;;;;;;;0.31;61.18;99764.66;1722827;81;21204;-67
2022/01/16 09:57:34;;;;;;;4.58;2.42;;;;;;;0.35;61.27;99765.83;1687508;83;21079;-68
2022/01/16 10:00:04;;;;;;;10.93;3.35;;;;;;;0.39;61.13;99768.35;1708182;81;21014;-66
2022/01/16 10:02:34;;;;;;;5.12;2.65;;;;;;;0.40;61.23;99775.93;1698126;80;21034;-64
2022/01/16 10:05:25;;;;;;;10.85;3.37;;;;;;;0.43;60.75;99775.44;1690366;80;21140;-65
2022/01/16 10:08:07;;;;;;;8.23;3.08;;;;;;;0.43;60.67;99769.48;1714800;81;21047;-63
2022/01/16 10:10:37;;;;;;;13.18;3.42;;;;;;;0.44;60.60;99767.61;1731146;81;21711;-67
2022/01/16 10:13:24;;;;;;;8.68;3.30;;;;;;;0.46;60.51;99767.63;1749221;79;21022;-68
2022/01/16 10:15:55;;;;;;;12.23;3.05;;;;;;;0.50;60.38;99767.97;1745831;79;21113;-66
2022/01/16 10:18:40;;;;;;;7.70;2.33;;;;;;;0.48;59.98;99776.88;1751525;80;21077;-68
2022/01/16 10:21:08;;;;;;;15.75;4.55;;;;;;;0.38;59.76;99769.40;1733797;81;21014;-69
2022/01/16 10:23:42;;;;;;;11.38;3.42;;;;;;;0.41;60.27;99761.33;1728128;81;21112;-67
2022/01/16 10:26:19;;;;;;;8.53;2.95;;;;;;;0.42;60.27;99752.11;1749218;81;21167;-66
2022/01/16 10:28:48;;;;;;;6.55;2.70;;;;;;;0.42;60.51;99757.53;1726052;81;21057;-68
2022/01/16 10:31:22;;;;;;;9.00;3.08;;;;;;;0.44;60.34;99767.61;1742180;81;21174;-67
2022/01/16 10:33:50;;;;;;;5.65;2.12;;;;;;;0.48;60.32;99776.88;1748767;80;21089;-68
2022/01/16 10:36:37;;;;;;;7.40;2.87;;;;;;;0.48;59.94;99768.21;1735553;81;21537;-71
2022/01/16 10:39:09;;;;;;;6.03;2.25;;;;;;;0.46;59.90;99767.63;1747195;80;21055;-68
2022/01/16 10:41:36;;;;;;;10.53;2.40;;;;;;;0.45;60.08;99763.81;1734643;81;21491;-63
2022/01/16 10:44:07;;;;;;;6.70;2.45;;;;;;;0.41;59.27;99768.91;1733671;81;21124;-68
2022/01/16 10:46:33;;;;;;;6.80;2.50;;;;;;;0.35;60.04;99764.47;1733749;81;21086;-66
2022/01/16 10:49:16;;;;;;;6.55;2.27;;;;;;;0.35;59.61;99763.12;1751554;80;21060;-67
2022/01/16 10:51:42;;;;;;;8.73;3.83;;;;;;;0.27;59.95;99766.23;1744444;80;20986;-69
2022/01/16 10:54:33;;;;;;;5.47;2.10;;;;;;;0.31;60.31;99753.82;1731242;80;21045;-67
2022/01/16 10:57:22;;;;;;;8.35;2.20;;;;;;;0.35;60.02;99753.62;1741689;80;21859;-67
2022/01/16 10:59:49;;;;;;;13.88;4.12;;;;;;;0.40;59.85;99759.14;1751309;80;21079;-66
2022/01/16 11:02:18;;;;;;;7.20;2.00;;;;;;;0.41;59.70;99752.63;1736557;81;21046;-69
2022/01/16 11:04:48;;;;;;;5.22;1.87;;;;;;;0.41;59.38;99755.34;1736017;80;21260;-68
2022/01/16 11:07:15;;;;;;;5.80;2.20;;;;;;;0.42;59.26;99752.94;1745589;80;21433;-68
2022/01/16 11:09:45;;;;;;;10.98;3.27;;;;;;;0.42;58.94;99757.01;1738444;81;22642;-68
2022/01/16 11:12:11;;;;;;;15.83;4.05;;;;;;;0.36;58.81;99755.26;1747902;80;21157;-68
2022/01/16 11:14:39;;;;;;;5.62;2.95;;;;;;;0.35;59.19;99749.04;1756606;80;21869;-68
2022/01/16 11:17:07;;;;;;;5.95;1.80;;;;;;;0.35;58.46;99756.34;1721912;81;21545;-68
2022/01/16 11:22:03;;;;;;;9.33;2.15;;;;;;;0.28;58.89;99749.72;1746220;80;21029;-67
2022/01/16 11:24:46;;;;;;;4.22;1.60;;;;;;;0.27;57.79;99751.33;1746712;80;21065;-67
2022/01/16 11:27:02;;;;;;;6.47;2.45;;;;;;;0.22;58.34;99748.80;1699252;81;21057;-68
2022/01/16 11:29:29;;;;;;;9.40;2.87;;;;;;;0.26;58.36;99752.41;1739346;80;21540;-62
2022/01/16 11:31:56;;;;;;;9.68;2.67;;;;;;;0.26;58.45;99748.34;1745386;80;21049;-66
2022/01/16 11:34:23;;;;;;;6.72;2.40;;;;;;;0.27;58.05;99745.91;1748360;80;21527;-70
2022/01/16 11:36:52;;;;;;;4.90;2.33;;;;;;;0.29;58.29;99742.42;1738162;81;21040;-66
2022/01/16 11:39:18;;;;;;;10.55;2.25;;;;;;;0.34;58.32;99743.86;1755743;80;21200;-68
2022/01/16 11:41:56;;;;;;;11.18;2.90;;;;;;;0.31;57.82;99740.27;1744912;81;21116;-67
2022/01/16 11:44:29;;;;;;;10.18;3.52;;;;;;;0.30;57.97;99740.82;1751128;80;21046;-68
2022/01/16 11:47:00;;;;;;;3.40;1.75;;;;;;;0.30;58.37;99739.47;1743828;80;21137;-69
2022/01/16 11:49:36;;;;;;;6.90;2.15;;;;;;;0.36;58.57;99736.28;1747526;79;21576;-68
2022/01/16 11:52:15;;;;;;;7.47;2.92;;;;;;;0.34;57.95;99736.53;1743175;80;21511;-67
2022/01/16 11:54:46;;;;;;;6.92;2.52;;;;;;;0.36;58.16;99736.28;1739143;80;21336;-62
2022/01/16 11:57:25;;;;;;;7.35;2.50;;;;;;;0.43;58.14;99741.02;1752741;80;21136;-66
2022/01/16 12:00:14;;;;;;;7.37;2.30;;;;;;;0.45;57.52;99735.34;1735384;80;21165;-70
2022/01/16 12:02:48;;;;;;;7.30;2.45;;;;;;;0.46;57.63;99735.09;1740551;80;21101;-67
2022/01/16 12:05:26;;;;;;;5.83;2.10;;;;;;;0.46;57.47;99737.80;1744985;79;21150;-70
2022/01/16 12:07:55;;;;;;;7.30;2.55;;;;;;;0.44;57.44;99733.71;1741275;80;21032;-68
2022/01/16 12:10:45;;;;;;;12.82;2.62;;;;;;;0.42;57.45;99729.06;1732220;81;21051;-69
2022/01/16 12:13:49;;;;;;;8.98;2.83;;;;;;;0.38;57.58;99724.66;1735887;79;22291;-69
2022/01/16 12:16:42;;;;;;;9.53;3.08;;;;;;;0.38;57.84;99727.90;1748613;80;20990;-66
2022/01/16 12:19:45;;;;;;;16.62;3.50;;;;;;;0.33;57.74;99725.94;1752786;80;20990;-69
2022/01/16 12:22:10;;;;;;;11.45;4.28;;;;;;;0.33;58.19;99727.29;1736115;80;21034;-67
2022/01/16 12:24:42;;;;;;;11.55;2.90;;;;;;;0.33;58.03;99731.36;1750840;80;21194;-67
2022/01/16 12:27:27;;;;;;;5.17;2.98;;;;;;;0.28;58.02;99725.84;1748838;80;21075;-68
2022/01/16 12:30:14;;;;;;;8.30;2.37;;;;;;;0.27;58.21;99731.00;1755221;80;21073;-69
2022/01/16 12:32:55;;;;;;;6.83;2.15;;;;;;;0.21;58.25;99729.55;1757490;80;21124;-62
2022/01/16 12:35:51;;;;;;;8.15;2.40;;;;;;;0.16;58.48;99724.57;1741554;80;22187;-66